sensor_id;sensor_type;location;lat;lon;timestamp;P1;durP1;ratioP1;P2;durP2;ratioP2
31734;SDS011;18313;48.518;9.124;2024-02-26T00:01:02;2.55;;;1.30;;
31734;SDS011;18313;48.518;9.124;2024-02-26T00:03:29;2.67;;;1.42;;
31734;SDS011;18313;48.518;9.124;2024-02-26T00:05:59;4.07;;;1.25;;
31734;SDS011;18313;48.518;9.124;2024-02-26T00:08:26;2.40;;;1.30;;
31734;SDS011;18313;48.518;9.124;2024-02-26T00:11:00;2.92;;;1.30;;
31734;SDS011;18313;48.518;9.124;2024-02-26T00:13:30;5.57;;;1.70;;
31734;SDS011;18313;48.518;9.124;2024-02-26T00:15:57;3.15;;;1.10;;
31734;SDS011;18313;48.518;9.124;2024-02-26T00:18:24;4.07;;;1.58;;
31734;SDS011;18313;48.518;9.124;2024-02-26T00:20:52;2.75;;;1.20;;
31734;SDS011;18313;48.518;9.124;2024-02-26T00:23:19;2.72;;;1.10;;
31734;SDS011;18313;48.518;9.124;2024-02-26T00:25:47;2.35;;;1.40;;
31734;SDS011;18313;48.518;9.124;2024-02-26T00:28:18;4.10;;;1.67;;
31734;SDS011;18313;48.518;9.124;2024-02-26T00:30:46;2.83;;;1.52;;
31734;SDS011;18313;48.518;9.124;2024-02-26T00:33:16;2.88;;;1.70;;
31734;SDS011;18313;48.518;9.124;2024-02-26T00:35:43;3.58;;;1.80;;
31734;SDS011;18313;48.518;9.124;2024-02-26T00:38:11;4.03;;;1.30;;
31734;SDS011;18313;48.518;9.124;2024-02-26T00:40:38;2.53;;;1.27;;
31734;SDS011;18313;48.518;9.124;2024-02-26T00:43:06;3.30;;;1.52;;
31734;SDS011;18313;48.518;9.124;2024-02-26T00:45:37;4.30;;;1.60;;
31734;SDS011;18313;48.518;9.124;2024-02-26T00:48:05;3.58;;;1.45;;
31734;SDS011;18313;48.518;9.124;2024-02-26T00:50:32;2.85;;;1.48;;
31734;SDS011;18313;48.518;9.124;2024-02-26T00:53:01;5.07;;;1.63;;
31734;SDS011;18313;48.518;9.124;2024-02-26T00:55:28;3.00;;;1.20;;
31734;SDS011;18313;48.518;9.124;2024-02-26T00:57:55;1.88;;;1.10;;
31734;SDS011;18313;48.518;9.124;2024-02-26T01:00:22;2.72;;;1.20;;
31734;SDS011;18313;48.518;9.124;2024-02-26T01:02:50;2.58;;;1.23;;
31734;SDS011;18313;48.518;9.124;2024-02-26T01:05:17;2.58;;;1.25;;
31734;SDS011;18313;48.518;9.124;2024-02-26T01:07:45;2.58;;;1.10;;
31734;SDS011;18313;48.518;9.124;2024-02-26T01:10:12;3.30;;;1.30;;
31734;SDS011;18313;48.518;9.124;2024-02-26T01:12:40;2.28;;;1.20;;
31734;SDS011;18313;48.518;9.124;2024-02-26T01:15:07;3.35;;;1.10;;
31734;SDS011;18313;48.518;9.124;2024-02-26T01:17:35;2.38;;;1.30;;
31734;SDS011;18313;48.518;9.124;2024-02-26T01:20:03;2.78;;;1.20;;
31734;SDS011;18313;48.518;9.124;2024-02-26T01:22:33;2.38;;;1.27;;
31734;SDS011;18313;48.518;9.124;2024-02-26T01:25:00;2.35;;;1.20;;
31734;SDS011;18313;48.518;9.124;2024-02-26T01:27:27;2.25;;;1.13;;
31734;SDS011;18313;48.518;9.124;2024-02-26T01:29:54;4.03;;;1.38;;
31734;SDS011;18313;48.518;9.124;2024-02-26T01:32:22;4.80;;;1.38;;
31734;SDS011;18313;48.518;9.124;2024-02-26T01:34:51;2.95;;;1.35;;
31734;SDS011;18313;48.518;9.124;2024-02-26T01:37:18;2.42;;;1.00;;
31734;SDS011;18313;48.518;9.124;2024-02-26T01:39:46;2.55;;;1.15;;
31734;SDS011;18313;48.518;9.124;2024-02-26T01:42:13;2.88;;;1.20;;
31734;SDS011;18313;48.518;9.124;2024-02-26T01:44:42;3.50;;;1.73;;
31734;SDS011;18313;48.518;9.124;2024-02-26T01:47:10;4.45;;;1.90;;
31734;SDS011;18313;48.518;9.124;2024-02-26T01:49:39;4.07;;;2.40;;
31734;SDS011;18313;48.518;9.124;2024-02-26T01:52:07;4.05;;;2.35;;
31734;SDS011;18313;48.518;9.124;2024-02-26T01:54:36;5.38;;;2.80;;
31734;SDS011;18313;48.518;9.124;2024-02-26T01:57:04;4.82;;;2.70;;
31734;SDS011;18313;48.518;9.124;2024-02-26T01:59:33;3.83;;;2.33;;
31734;SDS011;18313;48.518;9.124;2024-02-26T02:02:02;4.85;;;2.83;;
31734;SDS011;18313;48.518;9.124;2024-02-26T02:04:32;6.47;;;2.58;;
31734;SDS011;18313;48.518;9.124;2024-02-26T02:07:00;5.65;;;2.25;;
31734;SDS011;18313;48.518;9.124;2024-02-26T02:09:29;2.92;;;1.60;;
31734;SDS011;18313;48.518;9.124;2024-02-26T02:11:56;4.75;;;2.50;;
31734;SDS011;18313;48.518;9.124;2024-02-26T02:14:24;4.80;;;2.50;;
31734;SDS011;18313;48.518;9.124;2024-02-26T02:16:52;5.93;;;2.40;;
31734;SDS011;18313;48.518;9.124;2024-02-26T02:19:19;3.28;;;1.90;;
31734;SDS011;18313;48.518;9.124;2024-02-26T02:21:46;3.25;;;1.90;;
31734;SDS011;18313;48.518;9.124;2024-02-26T02:24:14;3.83;;;1.98;;
31734;SDS011;18313;48.518;9.124;2024-02-26T02:26:41;3.92;;;1.92;;
31734;SDS011;18313;48.518;9.124;2024-02-26T02:29:08;4.13;;;2.00;;
31734;SDS011;18313;48.518;9.124;2024-02-26T02:31:36;3.58;;;1.85;;
31734;SDS011;18313;48.518;9.124;2024-02-26T02:34:03;3.58;;;1.90;;
31734;SDS011;18313;48.518;9.124;2024-02-26T02:36:30;4.68;;;1.98;;
31734;SDS011;18313;48.518;9.124;2024-02-26T02:38:57;2.92;;;1.85;;
31734;SDS011;18313;48.518;9.124;2024-02-26T02:41:25;3.35;;;1.75;;
31734;SDS011;18313;48.518;9.124;2024-02-26T02:43:54;4.22;;;1.90;;
31734;SDS011;18313;48.518;9.124;2024-02-26T02:46:21;3.33;;;1.70;;
31734;SDS011;18313;48.518;9.124;2024-02-26T02:48:48;3.08;;;1.80;;
31734;SDS011;18313;48.518;9.124;2024-02-26T02:51:16;3.85;;;2.13;;
31734;SDS011;18313;48.518;9.124;2024-02-26T02:53:43;3.67;;;1.80;;
31734;SDS011;18313;48.518;9.124;2024-02-26T02:56:10;3.20;;;1.55;;
31734;SDS011;18313;48.518;9.124;2024-02-26T02:58:37;3.03;;;2.00;;
31734;SDS011;18313;48.518;9.124;2024-02-26T03:01:04;3.15;;;1.88;;
31734;SDS011;18313;48.518;9.124;2024-02-26T03:03:32;4.68;;;2.00;;
31734;SDS011;18313;48.518;9.124;2024-02-26T03:06:00;3.17;;;1.90;;
31734;SDS011;18313;48.518;9.124;2024-02-26T03:08:27;4.45;;;1.88;;
31734;SDS011;18313;48.518;9.124;2024-02-26T03:10:54;5.55;;;2.00;;
31734;SDS011;18313;48.518;9.124;2024-02-26T03:13:21;3.60;;;2.03;;
31734;SDS011;18313;48.518;9.124;2024-02-26T03:15:49;3.65;;;1.90;;
31734;SDS011;18313;48.518;9.124;2024-02-26T03:18:16;3.78;;;1.90;;
31734;SDS011;18313;48.518;9.124;2024-02-26T03:20:43;3.45;;;1.73;;
31734;SDS011;18313;48.518;9.124;2024-02-26T03:23:11;3.45;;;1.73;;
31734;SDS011;18313;48.518;9.124;2024-02-26T03:25:42;3.88;;;1.95;;
31734;SDS011;18313;48.518;9.124;2024-02-26T03:28:12;3.80;;;1.92;;
31734;SDS011;18313;48.518;9.124;2024-02-26T03:30:39;3.05;;;1.75;;
31734;SDS011;18313;48.518;9.124;2024-02-26T03:33:07;3.78;;;1.95;;
31734;SDS011;18313;48.518;9.124;2024-02-26T03:35:34;5.35;;;1.90;;
31734;SDS011;18313;48.518;9.124;2024-02-26T03:38:02;3.78;;;1.80;;
31734;SDS011;18313;48.518;9.124;2024-02-26T03:40:29;3.55;;;1.90;;
31734;SDS011;18313;48.518;9.124;2024-02-26T03:42:56;4.93;;;2.00;;
31734;SDS011;18313;48.518;9.124;2024-02-26T03:45:24;3.15;;;1.80;;
31734;SDS011;18313;48.518;9.124;2024-02-26T03:47:52;3.42;;;2.10;;
31734;SDS011;18313;48.518;9.124;2024-02-26T03:50:19;3.00;;;1.58;;
31734;SDS011;18313;48.518;9.124;2024-02-26T03:52:47;3.47;;;1.55;;
31734;SDS011;18313;48.518;9.124;2024-02-26T03:55:14;3.42;;;1.85;;
31734;SDS011;18313;48.518;9.124;2024-02-26T03:57:41;5.47;;;2.30;;
31734;SDS011;18313;48.518;9.124;2024-02-26T04:00:08;4.50;;;2.20;;
31734;SDS011;18313;48.518;9.124;2024-02-26T04:02:36;3.25;;;1.85;;
31734;SDS011;18313;48.518;9.124;2024-02-26T04:05:04;3.28;;;1.90;;
31734;SDS011;18313;48.518;9.124;2024-02-26T04:07:31;4.00;;;2.00;;
31734;SDS011;18313;48.518;9.124;2024-02-26T04:09:59;3.78;;;2.13;;
31734;SDS011;18313;48.518;9.124;2024-02-26T04:12:30;3.17;;;1.88;;
31734;SDS011;18313;48.518;9.124;2024-02-26T04:14:57;4.30;;;2.00;;
31734;SDS011;18313;48.518;9.124;2024-02-26T04:17:25;4.70;;;2.15;;
31734;SDS011;18313;48.518;9.124;2024-02-26T04:19:52;4.90;;;2.00;;
31734;SDS011;18313;48.518;9.124;2024-02-26T04:22:19;5.60;;;2.00;;
31734;SDS011;18313;48.518;9.124;2024-02-26T04:24:46;2.92;;;1.77;;
31734;SDS011;18313;48.518;9.124;2024-02-26T04:27:14;3.83;;;1.95;;
31734;SDS011;18313;48.518;9.124;2024-02-26T04:29:41;4.90;;;2.17;;
31734;SDS011;18313;48.518;9.124;2024-02-26T04:32:08;3.70;;;1.83;;
31734;SDS011;18313;48.518;9.124;2024-02-26T04:34:35;4.85;;;2.10;;
31734;SDS011;18313;48.518;9.124;2024-02-26T04:37:04;5.05;;;1.90;;
31734;SDS011;18313;48.518;9.124;2024-02-26T04:39:31;4.22;;;2.05;;
31734;SDS011;18313;48.518;9.124;2024-02-26T04:41:59;3.70;;;1.80;;
31734;SDS011;18313;48.518;9.124;2024-02-26T04:44:29;4.50;;;2.13;;
31734;SDS011;18313;48.518;9.124;2024-02-26T04:46:56;3.53;;;1.85;;
31734;SDS011;18313;48.518;9.124;2024-02-26T04:49:24;4.07;;;2.03;;
31734;SDS011;18313;48.518;9.124;2024-02-26T04:51:51;3.80;;;2.05;;
31734;SDS011;18313;48.518;9.124;2024-02-26T04:54:18;4.10;;;2.00;;
31734;SDS011;18313;48.518;9.124;2024-02-26T04:56:45;3.30;;;1.80;;
31734;SDS011;18313;48.518;9.124;2024-02-26T04:59:12;2.67;;;1.80;;
31734;SDS011;18313;48.518;9.124;2024-02-26T05:01:40;4.03;;;2.10;;
31734;SDS011;18313;48.518;9.124;2024-02-26T05:04:08;3.65;;;1.80;;
31734;SDS011;18313;48.518;9.124;2024-02-26T05:06:36;4.20;;;2.50;;
31734;SDS011;18313;48.518;9.124;2024-02-26T05:09:04;6.70;;;3.70;;
31734;SDS011;18313;48.518;9.124;2024-02-26T05:11:31;7.18;;;3.88;;
31734;SDS011;18313;48.518;9.124;2024-02-26T05:13:59;7.30;;;3.85;;
31734;SDS011;18313;48.518;9.124;2024-02-26T05:16:27;6.15;;;3.20;;
31734;SDS011;18313;48.518;9.124;2024-02-26T05:18:56;4.45;;;2.28;;
31734;SDS011;18313;48.518;9.124;2024-02-26T05:21:24;4.00;;;2.40;;
31734;SDS011;18313;48.518;9.124;2024-02-26T05:23:55;4.60;;;2.53;;
31734;SDS011;18313;48.518;9.124;2024-02-26T05:26:23;4.63;;;2.60;;
31734;SDS011;18313;48.518;9.124;2024-02-26T05:28:51;6.13;;;3.28;;
31734;SDS011;18313;48.518;9.124;2024-02-26T05:31:18;5.07;;;2.65;;
31734;SDS011;18313;48.518;9.124;2024-02-26T05:33:46;5.43;;;2.50;;
31734;SDS011;18313;48.518;9.124;2024-02-26T05:36:20;5.85;;;3.50;;
31734;SDS011;18313;48.518;9.124;2024-02-26T05:38:49;5.07;;;2.40;;
31734;SDS011;18313;48.518;9.124;2024-02-26T05:41:16;8.48;;;2.20;;
31734;SDS011;18313;48.518;9.124;2024-02-26T05:43:49;3.60;;;1.95;;
31734;SDS011;18313;48.518;9.124;2024-02-26T05:46:17;5.28;;;2.47;;
31734;SDS011;18313;48.518;9.124;2024-02-26T05:48:49;5.60;;;2.45;;
31734;SDS011;18313;48.518;9.124;2024-02-26T05:51:21;4.00;;;2.22;;
31734;SDS011;18313;48.518;9.124;2024-02-26T05:53:48;7.10;;;3.10;;
31734;SDS011;18313;48.518;9.124;2024-02-26T05:56:22;6.13;;;2.90;;
31734;SDS011;18313;48.518;9.124;2024-02-26T05:58:49;5.85;;;2.28;;
31734;SDS011;18313;48.518;9.124;2024-02-26T06:01:17;7.07;;;2.25;;
31734;SDS011;18313;48.518;9.124;2024-02-26T06:03:44;4.90;;;2.25;;
31734;SDS011;18313;48.518;9.124;2024-02-26T06:06:12;4.18;;;2.20;;
31734;SDS011;18313;48.518;9.124;2024-02-26T06:08:42;5.25;;;2.20;;
31734;SDS011;18313;48.518;9.124;2024-02-26T06:11:10;5.90;;;2.40;;
31734;SDS011;18313;48.518;9.124;2024-02-26T06:13:38;4.63;;;2.38;;
31734;SDS011;18313;48.518;9.124;2024-02-26T06:16:05;6.03;;;2.70;;
31734;SDS011;18313;48.518;9.124;2024-02-26T06:18:37;4.72;;;2.53;;
31734;SDS011;18313;48.518;9.124;2024-02-26T06:21:08;3.53;;;1.92;;
31734;SDS011;18313;48.518;9.124;2024-02-26T06:23:40;4.85;;;2.60;;
31734;SDS011;18313;48.518;9.124;2024-02-26T06:26:08;3.63;;;1.90;;
31734;SDS011;18313;48.518;9.124;2024-02-26T06:28:36;4.57;;;1.90;;
31734;SDS011;18313;48.518;9.124;2024-02-26T06:31:07;3.50;;;2.10;;
31734;SDS011;18313;48.518;9.124;2024-02-26T06:33:35;4.50;;;2.40;;
31734;SDS011;18313;48.518;9.124;2024-02-26T06:36:03;4.68;;;2.05;;
31734;SDS011;18313;48.518;9.124;2024-02-26T06:38:31;4.75;;;2.30;;
31734;SDS011;18313;48.518;9.124;2024-02-26T06:40:59;4.55;;;2.50;;
31734;SDS011;18313;48.518;9.124;2024-02-26T06:43:26;4.60;;;2.42;;
31734;SDS011;18313;48.518;9.124;2024-02-26T06:45:54;5.22;;;2.60;;
31734;SDS011;18313;48.518;9.124;2024-02-26T06:48:25;4.90;;;2.45;;
31734;SDS011;18313;48.518;9.124;2024-02-26T06:50:52;4.80;;;2.35;;
31734;SDS011;18313;48.518;9.124;2024-02-26T06:53:20;4.25;;;2.40;;
31734;SDS011;18313;48.518;9.124;2024-02-26T06:55:47;3.28;;;2.08;;
31734;SDS011;18313;48.518;9.124;2024-02-26T06:58:16;6.07;;;2.38;;
31734;SDS011;18313;48.518;9.124;2024-02-26T07:00:46;8.38;;;2.35;;
31734;SDS011;18313;48.518;9.124;2024-02-26T07:03:14;4.18;;;2.13;;
31734;SDS011;18313;48.518;9.124;2024-02-26T07:05:41;4.22;;;2.33;;
31734;SDS011;18313;48.518;9.124;2024-02-26T07:08:10;5.53;;;2.15;;
31734;SDS011;18313;48.518;9.124;2024-02-26T07:10:38;4.78;;;2.13;;
31734;SDS011;18313;48.518;9.124;2024-02-26T07:13:05;3.67;;;1.98;;
31734;SDS011;18313;48.518;9.124;2024-02-26T07:15:33;4.82;;;2.13;;
31734;SDS011;18313;48.518;9.124;2024-02-26T07:18:00;5.25;;;2.00;;
31734;SDS011;18313;48.518;9.124;2024-02-26T07:20:31;4.93;;;2.30;;
31734;SDS011;18313;48.518;9.124;2024-02-26T07:22:59;4.68;;;2.53;;
31734;SDS011;18313;48.518;9.124;2024-02-26T07:25:27;3.63;;;2.13;;
31734;SDS011;18313;48.518;9.124;2024-02-26T07:27:55;5.78;;;2.40;;
31734;SDS011;18313;48.518;9.124;2024-02-26T07:30:22;7.95;;;4.65;;
31734;SDS011;18313;48.518;9.124;2024-02-26T07:32:50;6.22;;;3.10;;
31734;SDS011;18313;48.518;9.124;2024-02-26T07:35:18;6.82;;;3.50;;
31734;SDS011;18313;48.518;9.124;2024-02-26T07:37:47;4.00;;;2.30;;
31734;SDS011;18313;48.518;9.124;2024-02-26T07:40:17;5.30;;;2.00;;
31734;SDS011;18313;48.518;9.124;2024-02-26T07:42:44;6.32;;;2.17;;
31734;SDS011;18313;48.518;9.124;2024-02-26T07:45:14;3.63;;;2.00;;
31734;SDS011;18313;48.518;9.124;2024-02-26T07:47:42;4.30;;;2.20;;
31734;SDS011;18313;48.518;9.124;2024-02-26T07:50:10;4.63;;;2.10;;
31734;SDS011;18313;48.518;9.124;2024-02-26T07:52:39;6.50;;;2.10;;
31734;SDS011;18313;48.518;9.124;2024-02-26T07:55:06;4.65;;;2.20;;
31734;SDS011;18313;48.518;9.124;2024-02-26T07:57:34;4.18;;;2.10;;
31734;SDS011;18313;48.518;9.124;2024-02-26T08:00:02;2.85;;;1.70;;
31734;SDS011;18313;48.518;9.124;2024-02-26T08:02:30;3.55;;;2.03;;
31734;SDS011;18313;48.518;9.124;2024-02-26T08:04:57;3.42;;;1.92;;
31734;SDS011;18313;48.518;9.124;2024-02-26T08:07:25;5.60;;;2.10;;
31734;SDS011;18313;48.518;9.124;2024-02-26T08:09:52;3.72;;;2.10;;
31734;SDS011;18313;48.518;9.124;2024-02-26T08:12:19;3.95;;;2.22;;
31734;SDS011;18313;48.518;9.124;2024-02-26T08:14:47;4.97;;;2.50;;
31734;SDS011;18313;48.518;9.124;2024-02-26T08:17:14;7.65;;;2.10;;
31734;SDS011;18313;48.518;9.124;2024-02-26T08:19:41;3.25;;;1.90;;
31734;SDS011;18313;48.518;9.124;2024-02-26T08:22:09;3.70;;;2.33;;
31734;SDS011;18313;48.518;9.124;2024-02-26T08:24:43;5.65;;;1.90;;
31734;SDS011;18313;48.518;9.124;2024-02-26T08:27:11;3.60;;;1.85;;
31734;SDS011;18313;48.518;9.124;2024-02-26T08:29:38;5.68;;;2.17;;
31734;SDS011;18313;48.518;9.124;2024-02-26T08:32:07;4.25;;;1.88;;
31734;SDS011;18313;48.518;9.124;2024-02-26T08:34:35;3.63;;;1.77;;
31734;SDS011;18313;48.518;9.124;2024-02-26T08:37:05;2.60;;;1.40;;
31734;SDS011;18313;48.518;9.124;2024-02-26T08:39:32;3.38;;;1.80;;
31734;SDS011;18313;48.518;9.124;2024-02-26T08:42:02;5.32;;;2.00;;
31734;SDS011;18313;48.518;9.124;2024-02-26T08:44:31;3.30;;;1.80;;
31734;SDS011;18313;48.518;9.124;2024-02-26T08:46:58;5.75;;;1.95;;
31734;SDS011;18313;48.518;9.124;2024-02-26T08:49:26;5.03;;;1.92;;
31734;SDS011;18313;48.518;9.124;2024-02-26T08:52:00;2.87;;;1.60;;
31734;SDS011;18313;48.518;9.124;2024-02-26T08:54:33;7.70;;;2.40;;
31734;SDS011;18313;48.518;9.124;2024-02-26T08:57:01;7.30;;;3.08;;
31734;SDS011;18313;48.518;9.124;2024-02-26T08:59:29;8.30;;;3.60;;
31734;SDS011;18313;48.518;9.124;2024-02-26T09:01:57;5.47;;;2.90;;
31734;SDS011;18313;48.518;9.124;2024-02-26T09:04:24;9.85;;;4.00;;
31734;SDS011;18313;48.518;9.124;2024-02-26T09:06:56;7.22;;;3.20;;
31734;SDS011;18313;48.518;9.124;2024-02-26T09:09:24;5.32;;;2.17;;
31734;SDS011;18313;48.518;9.124;2024-02-26T09:11:57;6.63;;;2.67;;
31734;SDS011;18313;48.518;9.124;2024-02-26T09:14:26;6.35;;;2.33;;
31734;SDS011;18313;48.518;9.124;2024-02-26T09:16:57;4.13;;;2.15;;
31734;SDS011;18313;48.518;9.124;2024-02-26T09:19:26;3.90;;;2.30;;
31734;SDS011;18313;48.518;9.124;2024-02-26T09:22:17;9.52;;;2.65;;
31734;SDS011;18313;48.518;9.124;2024-02-26T09:24:44;8.00;;;2.50;;
31734;SDS011;18313;48.518;9.124;2024-02-26T09:27:12;5.38;;;2.30;;
31734;SDS011;18313;48.518;9.124;2024-02-26T09:29:39;3.40;;;2.00;;
31734;SDS011;18313;48.518;9.124;2024-02-26T09:32:09;7.82;;;2.13;;
31734;SDS011;18313;48.518;9.124;2024-02-26T09:34:39;4.80;;;1.98;;
31734;SDS011;18313;48.518;9.124;2024-02-26T09:37:07;5.53;;;2.30;;
31734;SDS011;18313;48.518;9.124;2024-02-26T09:39:46;5.10;;;2.00;;
31734;SDS011;18313;48.518;9.124;2024-02-26T09:42:14;4.88;;;1.98;;
31734;SDS011;18313;48.518;9.124;2024-02-26T09:44:44;3.40;;;2.05;;
31734;SDS011;18313;48.518;9.124;2024-02-26T09:47:15;5.03;;;1.88;;
31734;SDS011;18313;48.518;9.124;2024-02-26T09:49:43;3.67;;;1.70;;
31734;SDS011;18313;48.518;9.124;2024-02-26T09:52:14;3.10;;;1.80;;
31734;SDS011;18313;48.518;9.124;2024-02-26T09:54:49;3.55;;;1.85;;
31734;SDS011;18313;48.518;9.124;2024-02-26T09:57:17;5.25;;;2.15;;
31734;SDS011;18313;48.518;9.124;2024-02-26T09:59:45;4.88;;;2.17;;
31734;SDS011;18313;48.518;9.124;2024-02-26T10:02:18;4.70;;;2.08;;
31734;SDS011;18313;48.518;9.124;2024-02-26T10:04:56;4.55;;;2.53;;
31734;SDS011;18313;48.518;9.124;2024-02-26T10:07:29;3.92;;;1.92;;
31734;SDS011;18313;48.518;9.124;2024-02-26T10:09:57;4.38;;;1.85;;
31734;SDS011;18313;48.518;9.124;2024-02-26T10:12:26;4.15;;;1.63;;
31734;SDS011;18313;48.518;9.124;2024-02-26T10:14:55;6.50;;;1.83;;
31734;SDS011;18313;48.518;9.124;2024-02-26T10:17:29;3.30;;;1.67;;
31734;SDS011;18313;48.518;9.124;2024-02-26T10:20:10;4.00;;;1.90;;
31734;SDS011;18313;48.518;9.124;2024-02-26T10:22:44;3.38;;;1.77;;
31734;SDS011;18313;48.518;9.124;2024-02-26T10:25:15;3.53;;;1.80;;
31734;SDS011;18313;48.518;9.124;2024-02-26T10:27:43;4.97;;;2.00;;
31734;SDS011;18313;48.518;9.124;2024-02-26T10:30:17;3.17;;;1.58;;
31734;SDS011;18313;48.518;9.124;2024-02-26T10:32:49;3.58;;;1.80;;
31734;SDS011;18313;48.518;9.124;2024-02-26T10:35:18;4.63;;;1.70;;
31734;SDS011;18313;48.518;9.124;2024-02-26T10:37:49;4.90;;;1.70;;
31734;SDS011;18313;48.518;9.124;2024-02-26T10:40:20;6.10;;;2.17;;
31734;SDS011;18313;48.518;9.124;2024-02-26T10:42:48;3.65;;;1.88;;
31734;SDS011;18313;48.518;9.124;2024-02-26T10:45:15;6.38;;;1.90;;
31734;SDS011;18313;48.518;9.124;2024-02-26T10:47:44;5.22;;;1.85;;
31734;SDS011;18313;48.518;9.124;2024-02-26T10:50:13;4.05;;;2.10;;
31734;SDS011;18313;48.518;9.124;2024-02-26T10:52:52;4.45;;;1.90;;
31734;SDS011;18313;48.518;9.124;2024-02-26T10:55:21;3.38;;;1.80;;
31734;SDS011;18313;48.518;9.124;2024-02-26T10:57:51;4.93;;;2.10;;
31734;SDS011;18313;48.518;9.124;2024-02-26T11:00:20;4.40;;;2.03;;
31734;SDS011;18313;48.518;9.124;2024-02-26T11:02:48;4.25;;;2.17;;
31734;SDS011;18313;48.518;9.124;2024-02-26T11:05:23;5.85;;;2.60;;
31734;SDS011;18313;48.518;9.124;2024-02-26T11:07:54;4.35;;;2.08;;
31734;SDS011;18313;48.518;9.124;2024-02-26T11:10:22;3.45;;;1.75;;
31734;SDS011;18313;48.518;9.124;2024-02-26T11:12:54;6.85;;;1.98;;
31734;SDS011;18313;48.518;9.124;2024-02-26T11:15:26;5.40;;;2.20;;
31734;SDS011;18313;48.518;9.124;2024-02-26T11:17:55;3.63;;;1.88;;
31734;SDS011;18313;48.518;9.124;2024-02-26T11:20:24;3.40;;;1.92;;
31734;SDS011;18313;48.518;9.124;2024-02-26T11:22:54;3.58;;;2.00;;
31734;SDS011;18313;48.518;9.124;2024-02-26T11:25:22;4.93;;;1.90;;
31734;SDS011;18313;48.518;9.124;2024-02-26T11:27:57;3.15;;;1.63;;
31734;SDS011;18313;48.518;9.124;2024-02-26T11:30:32;4.45;;;1.95;;
31734;SDS011;18313;48.518;9.124;2024-02-26T11:33:08;3.83;;;1.80;;
31734;SDS011;18313;48.518;9.124;2024-02-26T11:35:46;4.60;;;1.80;;
31734;SDS011;18313;48.518;9.124;2024-02-26T11:38:17;5.72;;;1.70;;
31734;SDS011;18313;48.518;9.124;2024-02-26T11:40:48;3.13;;;1.60;;
31734;SDS011;18313;48.518;9.124;2024-02-26T11:43:23;7.03;;;1.70;;
31734;SDS011;18313;48.518;9.124;2024-02-26T11:49:44;4.65;;;1.58;;
31734;SDS011;18313;48.518;9.124;2024-02-26T11:52:07;5.07;;;1.90;;
31734;SDS011;18313;48.518;9.124;2024-02-26T11:54:45;3.17;;;1.80;;
31734;SDS011;18313;48.518;9.124;2024-02-26T11:57:27;5.22;;;1.50;;
31734;SDS011;18313;48.518;9.124;2024-02-26T12:00:03;2.58;;;1.48;;
31734;SDS011;18313;48.518;9.124;2024-02-26T12:02:51;4.72;;;1.50;;
31734;SDS011;18313;48.518;9.124;2024-02-26T12:05:25;4.25;;;1.63;;
31734;SDS011;18313;48.518;9.124;2024-02-26T12:07:55;4.97;;;1.75;;
31734;SDS011;18313;48.518;9.124;2024-02-26T12:10:31;2.70;;;1.40;;
31734;SDS011;18313;48.518;9.124;2024-02-26T12:13:05;4.30;;;1.60;;
31734;SDS011;18313;48.518;9.124;2024-02-26T12:18:23;2.90;;;1.50;;
31734;SDS011;18313;48.518;9.124;2024-02-26T12:21:01;3.38;;;1.70;;
31734;SDS011;18313;48.518;9.124;2024-02-26T12:23:32;4.80;;;1.60;;
31734;SDS011;18313;48.518;9.124;2024-02-26T12:25:59;4.63;;;1.70;;
31734;SDS011;18313;48.518;9.124;2024-02-26T12:28:31;4.03;;;1.60;;
31734;SDS011;18313;48.518;9.124;2024-02-26T12:30:58;3.22;;;1.67;;
31734;SDS011;18313;48.518;9.124;2024-02-26T12:33:31;2.35;;;1.33;;
31734;SDS011;18313;48.518;9.124;2024-02-26T12:35:59;3.95;;;1.42;;
31734;SDS011;18313;48.518;9.124;2024-02-26T12:38:26;2.92;;;1.10;;
31734;SDS011;18313;48.518;9.124;2024-02-26T12:40:57;3.53;;;1.50;;
31734;SDS011;18313;48.518;9.124;2024-02-26T12:43:27;2.80;;;1.20;;
31734;SDS011;18313;48.518;9.124;2024-02-26T12:45:55;3.35;;;1.33;;
31734;SDS011;18313;48.518;9.124;2024-02-26T12:48:25;4.15;;;1.40;;
31734;SDS011;18313;48.518;9.124;2024-02-26T12:50:55;2.22;;;1.27;;
31734;SDS011;18313;48.518;9.124;2024-02-26T12:53:23;2.75;;;1.30;;
31734;SDS011;18313;48.518;9.124;2024-02-26T12:55:55;2.08;;;1.20;;
31734;SDS011;18313;48.518;9.124;2024-02-26T12:58:30;2.88;;;1.30;;
31734;SDS011;18313;48.518;9.124;2024-02-26T13:01:00;2.50;;;1.50;;
31734;SDS011;18313;48.518;9.124;2024-02-26T13:03:28;3.72;;;1.60;;
31734;SDS011;18313;48.518;9.124;2024-02-26T13:05:57;2.83;;;1.58;;
31734;SDS011;18313;48.518;9.124;2024-02-26T13:08:29;3.38;;;1.80;;
31734;SDS011;18313;48.518;9.124;2024-02-26T13:10:58;3.50;;;1.60;;
31734;SDS011;18313;48.518;9.124;2024-02-26T13:13:27;3.17;;;1.60;;
31734;SDS011;18313;48.518;9.124;2024-02-26T13:16:05;4.53;;;1.52;;
31734;SDS011;18313;48.518;9.124;2024-02-26T13:18:35;3.53;;;1.70;;
31734;SDS011;18313;48.518;9.124;2024-02-26T13:21:10;3.85;;;1.50;;
31734;SDS011;18313;48.518;9.124;2024-02-26T13:23:41;4.35;;;1.63;;
31734;SDS011;18313;48.518;9.124;2024-02-26T13:26:11;4.18;;;1.45;;
31734;SDS011;18313;48.518;9.124;2024-02-26T13:28:43;4.28;;;1.50;;
31734;SDS011;18313;48.518;9.124;2024-02-26T13:31:11;2.10;;;1.20;;
31734;SDS011;18313;48.518;9.124;2024-02-26T13:33:39;2.63;;;1.30;;
31734;SDS011;18313;48.518;9.124;2024-02-26T13:36:07;4.20;;;1.30;;
31734;SDS011;18313;48.518;9.124;2024-02-26T13:38:54;3.33;;;1.50;;
31734;SDS011;18313;48.518;9.124;2024-02-26T13:41:23;2.88;;;1.35;;
31734;SDS011;18313;48.518;9.124;2024-02-26T13:43:50;2.33;;;1.20;;
31734;SDS011;18313;48.518;9.124;2024-02-26T13:46:18;3.45;;;1.50;;
31734;SDS011;18313;48.518;9.124;2024-02-26T13:48:46;3.60;;;1.40;;
31734;SDS011;18313;48.518;9.124;2024-02-26T13:51:24;2.72;;;1.30;;
31734;SDS011;18313;48.518;9.124;2024-02-26T13:53:51;4.00;;;1.35;;
31734;SDS011;18313;48.518;9.124;2024-02-26T13:56:19;4.32;;;1.25;;
31734;SDS011;18313;48.518;9.124;2024-02-26T13:58:46;1.40;;;0.80;;
31734;SDS011;18313;48.518;9.124;2024-02-26T14:01:14;2.58;;;0.85;;
31734;SDS011;18313;48.518;9.124;2024-02-26T14:03:43;2.38;;;0.93;;
31734;SDS011;18313;48.518;9.124;2024-02-26T14:06:11;3.20;;;1.10;;
31734;SDS011;18313;48.518;9.124;2024-02-26T14:08:40;3.10;;;1.15;;
31734;SDS011;18313;48.518;9.124;2024-02-26T14:11:07;3.70;;;1.25;;
31734;SDS011;18313;48.518;9.124;2024-02-26T14:13:38;3.70;;;1.33;;
31734;SDS011;18313;48.518;9.124;2024-02-26T14:16:12;2.72;;;1.42;;
31734;SDS011;18313;48.518;9.124;2024-02-26T14:18:43;2.70;;;1.20;;
31734;SDS011;18313;48.518;9.124;2024-02-26T14:21:16;3.92;;;1.30;;
31734;SDS011;18313;48.518;9.124;2024-02-26T14:23:44;5.45;;;2.03;;
31734;SDS011;18313;48.518;9.124;2024-02-26T14:26:14;3.63;;;1.10;;
31734;SDS011;18313;48.518;9.124;2024-02-26T14:28:41;2.90;;;1.02;;
31734;SDS011;18313;48.518;9.124;2024-02-26T14:31:09;2.17;;;0.98;;
31734;SDS011;18313;48.518;9.124;2024-02-26T14:33:38;3.10;;;1.10;;
31734;SDS011;18313;48.518;9.124;2024-02-26T14:36:07;1.80;;;0.90;;
31734;SDS011;18313;48.518;9.124;2024-02-26T14:38:35;1.95;;;1.00;;
31734;SDS011;18313;48.518;9.124;2024-02-26T14:41:05;1.17;;;0.77;;
31734;SDS011;18313;48.518;9.124;2024-02-26T14:43:33;1.40;;;0.70;;
31734;SDS011;18313;48.518;9.124;2024-02-26T14:46:02;0.88;;;0.60;;
31734;SDS011;18313;48.518;9.124;2024-02-26T14:48:30;1.95;;;0.93;;
31734;SDS011;18313;48.518;9.124;2024-02-26T14:50:59;1.80;;;0.80;;
31734;SDS011;18313;48.518;9.124;2024-02-26T14:53:30;1.40;;;0.82;;
31734;SDS011;18313;48.518;9.124;2024-02-26T14:55:59;3.20;;;0.80;;
31734;SDS011;18313;48.518;9.124;2024-02-26T14:58:26;2.08;;;0.90;;
31734;SDS011;18313;48.518;9.124;2024-02-26T15:00:54;3.33;;;1.20;;
31734;SDS011;18313;48.518;9.124;2024-02-26T15:03:21;2.47;;;0.95;;
31734;SDS011;18313;48.518;9.124;2024-02-26T15:05:52;3.60;;;1.15;;